Time;durP1;ratioP1;P1;durP2;ratioP2;P2;SDS_P1;SDS_P2;PMS_P1;PMS_P2;Temp;Humidity;BMP_temperature;BMP_pressure;BME280_temperature;BME280_humidity;BME280_pressure;Samples;Min_cycle;Max_cycle;Signal;HPM_P1;HPM_P2
2023/07/06 00:01:13;;;;;;;17.07;9.90;;;;;;;24.55;67.08;100197.87;124155;1101;101949;-77
2023/07/06 00:03:51;;;;;;;15.77;9.17;;;;;;;24.53;67.34;100191.67;125556;1101;101970;-77
2023/07/06 00:06:23;;;;;;;19.00;9.97;;;;;;;24.50;67.03;100188.20;124244;1102;104162;-77
2023/07/06 00:08:54;;;;;;;18.30;9.77;;;;;;;24.43;67.16;100194.64;125503;1102;102342;-77
2023/07/06 00:11:27;;;;;;;16.97;9.50;;;;;;;24.32;67.37;100195.79;124163;1102;104277;-77
2023/07/06 00:13:58;;;;;;;17.85;10.43;;;;;;;24.15;67.49;100190.89;124159;1102;104219;-77
2023/07/06 00:16:29;;;;;;;16.73;9.87;;;;;;;23.96;67.67;100193.12;124149;1100;104182;-77
2023/07/06 00:19:00;;;;;;;18.45;9.80;;;;;;;23.82;67.95;100190.73;124171;1101;104230;-77
2023/07/06 00:21:32;;;;;;;19.40;10.53;;;;;;;23.69;67.95;100190.16;124117;1102;104207;-77
2023/07/06 00:24:04;;;;;;;16.57;9.87;;;;;;;23.60;68.04;100195.72;124161;1102;104292;-76
2023/07/06 00:26:35;;;;;;;18.53;9.70;;;;;;;23.54;68.69;100192.31;124159;1102;104348;-76
2023/07/06 00:29:06;;;;;;;19.07;10.40;;;;;;;23.47;68.62;100195.12;124132;1102;101833;-76
2023/07/06 00:31:51;;;;;;;19.13;10.10;;;;;;;23.43;68.69;100201.45;124143;1102;102032;-76
2023/07/06 00:34:22;;;;;;;16.80;9.90;;;;;;;23.40;68.98;100193.48;124081;1101;104201;-76
2023/07/06 00:36:53;;;;;;;18.97;10.17;;;;;;;23.33;69.48;100191.88;124152;1102;104227;-77
2023/07/06 00:39:30;;;;;;;18.40;10.30;;;;;;;23.29;69.73;100196.40;124130;1102;102393;-74
2023/07/06 00:42:03;;;;;;;18.25;10.30;;;;;;;23.26;70.03;100199.14;124141;1102;104245;-74
2023/07/06 00:44:53;;;;;;;17.43;10.00;;;;;;;23.24;69.68;100198.30;124115;1102;104275;-73
2023/07/06 00:47:35;;;;;;;17.30;10.00;;;;;;;23.23;70.13;100201.88;125131;1101;101826;-74
2023/07/06 00:50:11;;;;;;;18.80;10.60;;;;;;;23.20;70.44;100196.59;124129;1102;104176;-74
2023/07/06 00:52:48;;;;;;;16.40;10.37;;;;;;;23.14;70.25;100202.11;124176;1102;104297;-76
2023/07/06 00:55:21;;;;;;;21.17;11.10;;;;;;;23.06;70.67;100204.00;124193;1102;104275;-76
2023/07/06 00:58:00;;;;;;;21.75;10.45;;;;;;;22.97;70.78;100199.74;124165;1100;104344;-75
2023/07/06 01:00:31;;;;;;;17.13;10.00;;;;;;;22.87;70.85;100199.02;124122;1101;104194;-75
2023/07/06 01:03:03;;;;;;;20.20;10.40;;;;;;;22.79;71.44;100200.97;124169;1102;101829;-76
2023/07/06 01:05:38;;;;;;;18.87;10.20;;;;;;;22.74;71.94;100203.73;124145;1102;104226;-76
2023/07/06 01:08:14;;;;;;;18.87;10.97;;;;;;;22.71;71.71;100200.25;124215;1102;104195;-76
2023/07/06 01:10:46;;;;;;;16.97;10.37;;;;;;;22.68;72.12;100200.31;124170;1102;101891;-76
2023/07/06 01:13:19;;;;;;;17.40;10.80;;;;;;;22.63;71.85;100197.72;124124;1102;104271;-76
2023/07/06 01:15:57;;;;;;;20.47;11.00;;;;;;;22.59;72.17;100204.92;124235;1101;104252;-75
2023/07/06 01:18:34;;;;;;;20.53;11.03;;;;;;;22.58;72.50;100202.28;124169;1102;104172;-76
2023/07/06 01:21:14;;;;;;;17.67;10.23;;;;;;;22.55;72.96;100207.69;124202;1102;102035;-76
2023/07/06 01:24:06;;;;;;;19.27;10.80;;;;;;;22.51;73.11;100214.86;124151;1102;104169;-76
2023/07/06 01:27:08;;;;;;;19.00;10.83;;;;;;;22.46;72.99;100208.72;124170;1102;102326;-77
2023/07/06 01:30:10;;;;;;;17.60;10.47;;;;;;;22.47;73.26;100214.94;124209;1102;102350;-76
2023/07/06 01:32:49;;;;;;;18.67;10.40;;;;;;;22.43;73.31;100214.99;124180;1102;104200;-77
2023/07/06 01:35:27;;;;;;;18.90;11.07;;;;;;;22.37;73.49;100215.09;124211;1102;104220;-77
2023/07/06 01:37:59;;;;;;;19.10;10.20;;;;;;;22.28;74.21;100207.20;124209;1101;101985;-76
2023/07/06 01:40:30;;;;;;;19.27;10.77;;;;;;;22.19;74.77;100202.92;124200;1102;104169;-76
2023/07/06 01:43:01;;;;;;;19.57;11.27;;;;;;;22.13;74.83;100197.67;124245;1102;104178;-76
2023/07/06 01:45:35;;;;;;;19.73;11.87;;;;;;;22.07;75.33;100200.45;124157;1102;104239;-76
2023/07/06 01:48:10;;;;;;;19.27;11.03;;;;;;;22.02;75.47;100197.85;124231;1102;104230;-76
2023/07/06 01:50:50;;;;;;;19.37;10.93;;;;;;;21.97;75.14;100198.82;124186;1102;104405;-76
2023/07/06 01:53:31;;;;;;;19.67;11.30;;;;;;;21.92;75.64;100192.68;124156;1102;104476;-76
2023/07/06 01:56:09;;;;;;;19.27;11.83;;;;;;;21.88;75.92;100192.73;124205;1102;101893;-77
2023/07/06 01:58:46;;;;;;;19.67;10.63;;;;;;;21.82;75.74;100189.28;125567;1101;104176;-77
2023/07/06 02:01:22;;;;;;;17.27;10.67;;;;;;;21.79;75.87;100187.53;124206;1102;104239;-76
2023/07/06 02:03:55;;;;;;;19.30;10.87;;;;;;;21.79;76.37;100190.20;124197;1102;104168;-76
2023/07/06 02:06:27;;;;;;;18.80;10.90;;;;;;;21.80;76.03;100197.31;124108;1102;104112;-76
2023/07/06 02:08:59;;;;;;;18.20;9.90;;;;;;;21.81;76.41;100195.52;124204;1102;104239;-76
2023/07/06 02:11:32;;;;;;;20.17;10.87;;;;;;;21.80;76.50;100194.64;124173;1102;102358;-76
2023/07/06 02:14:03;;;;;;;16.00;10.30;;;;;;;21.77;76.92;100197.36;124191;1102;104217;-78
2023/07/06 02:16:35;;;;;;;17.03;10.50;;;;;;;21.76;76.76;100197.38;124230;1101;102328;-76
2023/07/06 02:19:06;;;;;;;20.33;10.77;;;;;;;21.75;77.24;100198.28;124214;1102;104349;-76
2023/07/06 02:21:38;;;;;;;20.93;10.87;;;;;;;21.74;77.24;100194.73;124202;1102;104208;-77
2023/07/06 02:24:10;;;;;;;17.80;10.97;;;;;;;21.73;77.41;100190.29;124184;1102;103821;-77
2023/07/06 02:26:41;;;;;;;20.97;11.50;;;;;;;21.73;76.57;100191.16;124352;1102;104230;-77
2023/07/06 02:29:14;;;;;;;19.30;11.15;;;;;;;21.75;76.87;100195.61;124257;1102;103398;-76
2023/07/06 02:31:47;;;;;;;18.07;10.93;;;;;;;21.74;77.12;100202.75;124255;1102;102038;-77
2023/07/06 02:34:24;;;;;;;19.47;11.17;;;;;;;21.71;77.60;100202.80;124135;1102;104140;-76
2023/07/06 02:36:56;;;;;;;19.47;11.80;;;;;;;21.69;78.11;100199.24;124504;1102;104182;-76
2023/07/06 02:39:27;;;;;;;19.03;11.03;;;;;;;21.68;77.55;100190.36;124189;1102;104316;-76
2023/07/06 02:41:58;;;;;;;21.33;11.43;;;;;;;21.67;78.20;100193.05;124184;1102;104344;-76
2023/07/06 02:44:30;;;;;;;17.13;10.33;;;;;;;21.67;78.29;100193.05;124151;1102;104259;-76
2023/07/06 02:47:01;;;;;;;23.67;10.80;;;;;;;21.65;78.01;100185.06;124241;1101;104243;-76
2023/07/06 02:49:32;;;;;;;17.23;10.50;;;;;;;21.62;78.85;100194.92;124159;1102;104676;-77
2023/07/06 02:52:04;;;;;;;16.97;11.00;;;;;;;21.57;78.01;100196.78;124675;1102;104309;-77
2023/07/06 02:54:36;;;;;;;19.43;10.87;;;;;;;21.53;78.73;100188.81;124167;1102;103655;-76
2023/07/06 02:57:07;;;;;;;19.43;10.67;;;;;;;21.52;78.69;100189.70;124197;1102;104265;-77
2023/07/06 02:59:39;;;;;;;18.13;11.03;;;;;;;21.52;78.89;100187.04;124198;1101;102642;-76
2023/07/06 03:02:10;;;;;;;20.57;10.87;;;;;;;21.55;78.60;100186.13;124850;1102;102236;-76
2023/07/06 03:04:41;;;;;;;18.13;10.07;;;;;;;21.60;78.71;100191.36;124268;1102;104252;-76
2023/07/06 03:07:12;;;;;;;20.00;10.77;;;;;;;21.64;78.48;100190.42;124222;1101;104278;-76
2023/07/06 03:09:44;;;;;;;23.07;11.20;;;;;;;21.68;79.19;100192.16;124103;1102;104495;-75
2023/07/06 03:12:16;;;;;;;18.97;10.43;;;;;;;21.73;78.93;100187.62;124183;1102;104169;-76
2023/07/06 03:14:47;;;;;;;20.97;11.07;;;;;;;21.78;79.07;100183.08;124137;1102;104204;-75
2023/07/06 03:17:18;;;;;;;17.90;10.27;;;;;;;21.82;79.17;100190.16;124764;1102;101863;-75
2023/07/06 03:19:51;;;;;;;19.20;10.57;;;;;;;21.81;79.25;100188.38;124160;1102;102046;-77
2023/07/06 03:22:22;;;;;;;20.65;10.85;;;;;;;21.79;79.54;100184.86;125078;1101;101836;-76
2023/07/06 03:24:54;;;;;;;21.37;11.60;;;;;;;21.76;78.60;100184.91;124197;1102;104185;-76
2023/07/06 03:27:25;;;;;;;18.67;11.27;;;;;;;21.76;79.00;100184.03;124151;1102;104271;-76
2023/07/06 03:29:56;;;;;;;19.97;11.07;;;;;;;21.78;79.42;100187.55;124174;1102;101932;-76
2023/07/06 03:32:28;;;;;;;17.90;11.23;;;;;;;21.78;79.22;100175.07;124228;1102;101909;-76
2023/07/06 03:35:00;;;;;;;20.07;10.90;;;;;;;21.79;79.45;100174.17;124151;1102;101834;-76
2023/07/06 03:37:31;;;;;;;17.33;10.57;;;;;;;21.82;79.54;100166.11;124264;1102;104286;-76
2023/07/06 03:40:03;;;;;;;21.83;11.77;;;;;;;21.86;80.09;100170.52;124125;1102;104214;-75
2023/07/06 03:42:34;;;;;;;19.23;11.57;;;;;;;21.90;79.62;100164.19;124228;1102;103567;-76
2023/07/06 03:45:08;;;;;;;19.00;11.00;;;;;;;21.92;79.44;100166.84;124161;1102;104313;-76
2023/07/06 03:47:37;;;;;;;;;;;;;;;21.90;79.42;100166.86;124145;1102;104239;-75
2023/07/06 03:50:09;;;;;;;19.03;10.60;;;;;;;21.93;79.29;100165.08;124142;1102;102328;-75
2023/07/06 03:52:41;;;;;;;21.10;11.97;;;;;;;21.97;79.68;100161.42;124139;1102;112119;-75
2023/07/06 03:55:15;;;;;;;20.83;11.73;;;;;;;22.01;79.68;100160.48;124251;1102;101894;-75
2023/07/06 03:57:47;;;;;;;21.43;11.43;;;;;;;22.07;80.11;100155.90;124215;1102;104210;-76
2023/07/06 04:00:22;;;;;;;22.33;11.70;;;;;;;22.17;80.38;100159.28;124197;1102;104268;-76
2023/07/06 04:02:55;;;;;;;19.50;10.33;;;;;;;22.22;79.83;100162.78;124201;1102;101929;-76
2023/07/06 04:05:27;;;;;;;;;;;;;;;22.27;78.70;100160.03;124220;1102;101943;-76
2023/07/06 04:07:59;;;;;;;18.27;10.70;;;;;;;22.33;79.79;100159.05;124262;1102;104201;-75
2023/07/06 04:10:30;;;;;;;19.03;10.83;;;;;;;22.38;79.61;100146.50;124154;1101;104332;-75
2023/07/06 04:13:02;;;;;;;18.07;10.90;;;;;;;22.39;79.29;100149.15;124155;1102;104336;-75
2023/07/06 04:15:34;;;;;;;21.23;11.80;;;;;;;22.42;79.91;100157.11;124243;1102;104319;-75
2023/07/06 04:18:06;;;;;;;19.20;11.13;;;;;;;22.44;79.97;100157.09;124251;1102;104306;-76
2023/07/06 04:20:38;;;;;;;19.97;11.23;;;;;;;22.50;79.39;100146.28;124307;1102;104236;-76
2023/07/06 04:23:10;;;;;;;18.77;11.60;;;;;;;22.58;79.80;100155.02;124337;1102;118764;-76
2023/07/06 04:25:41;;;;;;;21.60;11.23;;;;;;;22.68;79.56;100149.50;124269;1102;101996;-76
2023/07/06 04:28:14;;;;;;;20.33;11.07;;;;;;;22.76;79.27;100156.44;124214;1102;104335;-75
2023/07/06 04:30:47;;;;;;;21.43;10.87;;;;;;;22.84;79.72;100161.63;124228;1102;104203;-75
2023/07/06 04:33:21;;;;;;;21.85;10.68;;;;;;;22.91;79.25;100149.91;124153;1102;104320;-74
2023/07/06 04:35:53;;;;;;;19.70;10.70;;;;;;;22.97;79.04;100149.78;124128;1102;104320;-75
2023/07/06 04:38:26;;;;;;;23.55;10.90;;;;;;;23.03;79.41;100153.23;124132;1102;104348;-75
2023/07/06 04:40:59;;;;;;;20.62;11.55;;;;;;;23.09;79.18;100150.45;124101;1102;104264;-75
2023/07/06 04:43:31;;;;;;;19.60;10.25;;;;;;;23.13;78.83;100150.36;124103;1102;103342;-75
2023/07/06 04:46:04;;;;;;;21.47;10.70;;;;;;;23.18;78.67;100158.29;124139;1102;104386;-74
2023/07/06 04:48:36;;;;;;;19.27;10.73;;;;;;;23.24;78.80;100160.83;124155;1102;104192;-74
2023/07/06 04:51:08;;;;;;;21.03;11.23;;;;;;;23.32;78.80;100155.31;124078;1102;104245;-74
2023/07/06 04:53:40;;;;;;;21.27;10.90;;;;;;;23.41;78.60;100159.59;124151;1101;104247;-74
2023/07/06 04:56:12;;;;;;;22.50;10.83;;;;;;;23.48;78.42;100154.06;124112;1102;104181;-74
2023/07/06 04:58:45;;;;;;;23.13;10.60;;;;;;;23.53;78.40;100156.63;124203;1102;104208;-76
2023/07/06 05:01:16;;;;;;;22.15;11.40;;;;;;;23.61;77.83;100154.64;124546;1102;104224;-77
2023/07/06 05:03:47;;;;;;;20.30;10.70;;;;;;;23.66;77.86;100152.73;124459;1102;104358;-78
2023/07/06 05:06:19;;;;;;;19.10;10.90;;;;;;;23.72;77.64;100157.08;124569;1102;102017;-78
2023/07/06 05:11:41;;;;;;;20.27;10.33;;;;;;;23.92;77.09;100151.27;125282;1102;101833;-78
2023/07/06 05:14:11;;;;;;;;;;;;;;;24.04;76.70;100147.38;124435;1102;118114;-77
2023/07/06 05:16:43;;;;;;;19.90;10.37;;;;;;;24.14;76.81;100148.91;124413;1102;103485;-77
2023/07/06 05:19:19;;;;;;;19.30;9.93;;;;;;;24.24;76.83;100154.91;125020;1102;104185;-75
2023/07/06 05:21:55;;;;;;;20.07;10.10;;;;;;;24.32;76.48;100160.94;124632;1102;104220;-78
2023/07/06 05:24:28;;;;;;;20.00;10.50;;;;;;;24.38;75.93;100154.54;124606;1102;101820;-82
2023/07/06 05:27:02;;;;;;;18.50;10.70;;;;;;;24.44;75.56;100156.19;125309;1101;101996;-79
2023/07/06 05:29:35;;;;;;;20.50;10.53;;;;;;;24.45;75.56;100144.52;124764;1102;103925;-78
2023/07/06 05:32:09;;;;;;;19.13;9.97;;;;;;;24.56;75.61;100150.48;124755;1102;104217;-82
2023/07/06 05:34:40;;;;;;;19.77;9.93;;;;;;;24.63;75.49;100144.05;125796;1101;111296;-78
2023/07/06 05:37:12;;;;;;;21.35;10.50;;;;;;;24.70;75.06;100151.01;124488;1102;104322;-79
2023/07/06 05:39:45;;;;;;;19.83;10.93;;;;;;;24.76;74.63;100142.79;124458;1102;104345;-76
2023/07/06 05:42:18;;;;;;;17.80;9.95;;;;;;;24.81;74.00;100139.07;124457;1102;104198;-77
2023/07/06 05:44:50;;;;;;;22.30;11.03;;;;;;;24.86;73.98;100139.84;124627;1102;104249;-76
2023/07/06 05:47:23;;;;;;;17.13;9.90;;;;;;;24.91;73.82;100137.89;124386;1102;104666;-76
2023/07/06 05:49:55;;;;;;;21.63;10.07;;;;;;;24.98;73.65;100136.80;125330;1100;101832;-76
2023/07/06 05:52:27;;;;;;;21.90;10.30;;;;;;;25.07;73.75;100127.58;124183;1102;104166;-76
2023/07/06 05:55:00;;;;;;;21.17;10.40;;;;;;;25.18;73.08;100122.78;124385;1102;104807;-75
2023/07/06 05:57:31;;;;;;;18.13;9.97;;;;;;;25.27;73.11;100126.97;125329;1101;104204;-77
2023/07/06 06:00:09;;;;;;;19.40;9.93;;;;;;;25.38;72.70;100129.35;124431;1102;104336;-78
2023/07/06 06:02:43;;;;;;;20.53;10.07;;;;;;;25.49;72.47;100129.88;125968;1101;104249;-80
2023/07/06 06:05:23;;;;;;;16.90;9.63;;;;;;;25.61;72.52;100123.25;126869;1100;118234;-79
2023/07/06 06:08:01;;;;;;;17.90;9.90;;;;;;;25.70;72.05;100114.89;124384;1102;104243;-77
2023/07/06 06:10:34;;;;;;;18.97;9.63;;;;;;;25.81;71.71;100118.09;124524;1102;101897;-79
2023/07/06 06:13:10;;;;;;;21.37;9.90;;;;;;;25.90;71.31;100124.08;124514;1102;104214;-78
2023/07/06 06:15:45;;;;;;;23.67;10.40;;;;;;;25.99;70.93;100121.11;124360;1102;104348;-77
2023/07/06 06:18:22;;;;;;;18.67;10.07;;;;;;;26.10;70.16;100123.44;124393;1102;101881;-74
2023/07/06 06:20:53;;;;;;;19.70;10.07;;;;;;;26.17;70.18;100117.79;125626;1101;104070;-75
2023/07/06 06:23:25;;;;;;;16.97;9.20;;;;;;;26.27;69.57;100118.37;125837;1101;102481;-76
2023/07/06 06:25:57;;;;;;;17.90;9.15;;;;;;;26.36;69.11;100126.08;124554;1102;111260;-75
2023/07/06 06:28:30;;;;;;;21.63;10.33;;;;;;;26.45;68.52;100119.50;124692;1102;102349;-78
2023/07/06 06:31:12;;;;;;;21.83;10.23;;;;;;;26.54;68.41;100124.55;125294;1102;104217;-74
2023/07/06 06:33:48;;;;;;;19.60;9.80;;;;;;;26.66;67.93;100116.98;125669;1101;104166;-75
2023/07/06 06:36:26;;;;;;;18.53;9.63;;;;;;;26.75;67.80;100119.34;125711;1101;101894;-79
2023/07/06 06:39:06;;;;;;;17.50;8.90;;;;;;;26.83;67.89;100109.19;125402;1102;104324;-78
2023/07/06 06:41:41;;;;;;;17.47;9.10;;;;;;;26.98;67.57;100118.47;124371;1102;101932;-76
2023/07/06 06:44:22;;;;;;;20.95;10.00;;;;;;;27.09;66.67;100115.37;124380;1102;104268;-76
2023/07/06 06:46:56;;;;;;;19.17;9.70;;;;;;;27.20;66.20;100106.87;124566;1102;107140;-81
2023/07/06 06:49:42;;;;;;;18.93;9.70;;;;;;;27.30;65.79;100102.88;125255;1102;101893;-78
2023/07/06 06:52:25;;;;;;;18.23;9.80;;;;;;;27.46;65.26;100122.03;124348;1102;103356;-75
2023/07/06 06:55:01;;;;;;;21.37;10.30;;;;;;;27.56;64.56;100109.91;124361;1101;102691;-73
2023/07/06 06:57:40;;;;;;;22.10;9.57;;;;;;;27.65;64.30;100102.42;124341;1102;104288;-75
2023/07/06 07:00:16;;;;;;;17.07;8.93;;;;;;;27.77;63.74;100099.21;124171;1102;102083;-74
2023/07/06 07:02:51;;;;;;;20.47;9.60;;;;;;;27.90;63.07;100104.95;124406;1102;104175;-79
2023/07/06 07:05:25;;;;;;;22.27;9.57;;;;;;;28.04;62.78;100099.88;124741;1102;104185;-78
2023/07/06 07:08:02;;;;;;;21.97;9.17;;;;;;;28.19;63.15;100095.64;124380;1102;101861;-80
2023/07/06 07:10:40;;;;;;;16.33;9.63;;;;;;;28.34;62.89;100107.56;124367;1102;103201;-77
2023/07/06 07:13:14;;;;;;;19.00;9.47;;;;;;;28.54;61.96;100105.80;124384;1102;102134;-77
2023/07/06 07:15:53;;;;;;;20.10;9.57;;;;;;;28.69;61.92;100100.61;124419;1102;101926;-78
2023/07/06 07:18:29;;;;;;;19.63;9.67;;;;;;;28.84;61.86;100101.73;124585;1102;101830;-79
2023/07/06 07:21:01;;;;;;;17.43;9.27;;;;;;;29.11;61.64;100097.78;124308;1102;104268;-76
2023/07/06 07:23:40;;;;;;;18.27;9.38;;;;;;;29.28;61.00;100103.30;124399;1102;102221;-81
2023/07/06 07:26:24;;;;;;;17.27;9.43;;;;;;;29.40;60.72;100102.71;124311;1102;104259;-77
2023/07/06 07:29:02;;;;;;;14.00;8.83;;;;;;;29.67;59.62;100104.99;124268;1102;104347;-81
2023/07/06 07:31:59;;;;;;;17.20;9.10;;;;;;;29.97;58.65;100095.44;124359;1102;104217;-77
2023/07/06 07:34:58;;;;;;;17.50;9.27;;;;;;;30.36;57.30;100092.46;124375;1102;104272;-78
2023/07/06 07:37:33;;;;;;;15.33;9.03;;;;;;;30.61;56.50;100093.89;125125;1102;102136;-80
2023/07/06 07:40:17;;;;;;;16.33;9.33;;;;;;;30.87;56.08;100089.75;125505;1102;102125;-81
2023/07/06 07:42:51;;;;;;;14.50;8.63;;;;;;;31.10;56.27;100085.77;125235;1101;104335;-78
2023/07/06 07:45:23;;;;;;;18.25;9.30;;;;;;;31.31;55.29;100088.23;124403;1102;104201;-78
2023/07/06 07:47:56;;;;;;;19.70;9.20;;;;;;;31.43;54.81;100084.83;124783;1102;102415;-80
2023/07/06 07:50:27;;;;;;;16.93;9.60;;;;;;;31.54;54.19;100081.52;124268;1102;104268;-74
2023/07/06 07:53:04;;;;;;;16.67;9.17;;;;;;;31.52;53.42;100081.58;124192;1102;102096;-74
2023/07/06 07:55:36;;;;;;;14.80;9.20;;;;;;;31.69;53.22;100088.73;124211;1102;104248;-76
2023/07/06 07:58:11;;;;;;;16.33;9.47;;;;;;;31.89;52.07;100090.26;124199;1102;111886;-74
2023/07/06 08:00:55;;;;;;;15.00;8.70;;;;;;;32.08;51.76;100094.58;124142;1102;104354;-74
2023/07/06 08:03:27;;;;;;;14.55;8.63;;;;;;;32.32;51.49;100083.22;124306;1101;102325;-75
2023/07/06 08:06:02;;;;;;;15.83;8.73;;;;;;;32.58;51.07;100087.92;124172;1102;101833;-76
2023/07/06 08:08:36;;;;;;;18.80;9.40;;;;;;;32.63;50.57;100079.48;124212;1102;103396;-76
2023/07/06 08:11:20;;;;;;;16.80;9.20;;;;;;;32.40;48.81;100080.92;124242;1102;104267;-73
2023/07/06 08:13:56;;;;;;;16.27;8.50;;;;;;;32.56;48.87;100083.55;126343;1101;101740;-75
2023/07/06 08:16:38;;;;;;;16.10;8.70;;;;;;;32.82;48.45;100081.04;124852;1101;104241;-78
2023/07/06 08:19:20;;;;;;;16.67;8.60;;;;;;;32.98;47.96;100076.38;124543;1102;104293;-83
2023/07/06 08:21:53;;;;;;;17.10;8.77;;;;;;;32.72;47.57;100081.63;125712;1101;104746;-76
2023/07/06 08:24:25;;;;;;;15.83;8.45;;;;;;;32.58;47.56;100076.16;124273;1102;101882;-76
2023/07/06 08:26:56;;;;;;;19.20;8.90;;;;;;;32.66;47.40;100082.01;124623;1102;101816;-78
2023/07/06 08:29:28;;;;;;;14.90;8.57;;;;;;;32.90;47.09;100085.02;124229;1102;104213;-79
2023/07/06 08:31:59;;;;;;;17.67;8.40;;;;;;;33.23;46.49;100075.67;124329;1102;104223;-75
2023/07/06 08:34:31;;;;;;;16.07;9.07;;;;;;;33.47;45.85;100075.02;124277;1102;102484;-78
2023/07/06 08:39:44;;;;;;;;;;;;;;;33.54;44.77;100067.34;124380;1102;104261;-79
2023/07/06 08:42:21;;;;;;;14.90;8.50;;;;;;;33.40;45.62;100069.12;124343;1102;101946;-77
2023/07/06 08:44:56;;;;;;;16.43;8.50;;;;;;;33.46;45.12;100065.99;124253;1102;103414;-77
2023/07/06 08:47:30;;;;;;;17.27;8.50;;;;;;;33.61;45.21;100066.82;124254;1102;104265;-75
2023/07/06 08:50:05;;;;;;;14.87;8.80;;;;;;;33.80;44.81;100071.02;124278;1102;104242;-77
2023/07/06 08:52:43;;;;;;;15.77;8.50;;;;;;;33.99;44.29;100068.78;124278;1102;102306;-78
2023/07/06 08:55:25;;;;;;;18.93;9.00;;;;;;;34.19;44.29;100071.98;124448;1102;104186;-79
2023/07/06 08:58:03;;;;;;;13.93;8.43;;;;;;;34.33;43.89;100074.63;125564;1101;102210;-74
2023/07/06 09:00:36;;;;;;;15.50;8.90;;;;;;;34.29;43.32;100067.65;124180;1102;102165;-77
2023/07/06 09:03:10;;;;;;;15.80;8.47;;;;;;;34.36;43.31;100068.97;124158;1102;101976;-77
2023/07/06 09:05:46;;;;;;;16.63;8.83;;;;;;;34.41;42.77;100070.48;124282;1102;102576;-77
2023/07/06 09:08:23;;;;;;;17.37;8.83;;;;;;;34.38;42.72;100068.86;124904;1102;102492;-79
2023/07/06 09:10:55;;;;;;;17.57;9.13;;;;;;;34.28;42.97;100065.03;124325;1102;101964;-80
2023/07/06 09:13:36;;;;;;;13.93;8.58;;;;;;;34.33;43.19;100068.30;125350;1102;101920;-79
2023/07/06 09:16:11;;;;;;;14.53;8.93;;;;;;;34.31;42.81;100065.67;124623;1102;104278;-79
2023/07/06 09:18:46;;;;;;;17.13;8.53;;;;;;;34.44;42.56;100054.81;124424;1102;104172;-79
2023/07/06 09:21:25;;;;;;;14.87;8.63;;;;;;;34.54;42.72;100061.32;124265;1102;104178;-75
2023/07/06 09:24:02;;;;;;;17.33;8.57;;;;;;;34.55;42.24;100062.22;125535;1101;104125;-77
2023/07/06 09:26:35;;;;;;;14.90;8.13;;;;;;;34.53;41.50;100058.70;125627;1101;104172;-76
2023/07/06 09:29:22;;;;;;;16.03;8.50;;;;;;;34.57;41.20;100054.80;124205;1101;104239;-77
2023/07/06 09:32:11;;;;;;;14.27;8.57;;;;;;;34.50;40.99;100051.65;124120;1102;104294;-78
2023/07/06 09:34:44;;;;;;;18.10;8.80;;;;;;;34.43;40.80;100058.50;124289;1102;104365;-78
2023/07/06 09:37:20;;;;;;;19.67;7.97;;;;;;;34.30;40.96;100054.89;124276;1102;104335;-79
2023/07/06 09:40:03;;;;;;;14.00;8.30;;;;;;;34.16;40.90;100047.70;124230;1102;104290;-76
2023/07/06 09:42:34;;;;;;;;;;;;;;;34.12;40.80;100054.33;124199;1102;102440;-78
2023/07/06 09:45:22;;;;;;;14.40;8.13;;;;;;;34.09;41.18;100043.65;124525;1102;101923;-80
2023/07/06 09:48:08;;;;;;;15.43;8.43;;;;;;;34.21;40.53;100043.65;124339;1102;104230;-80
2023/07/06 09:50:47;;;;;;;14.57;8.00;;;;;;;34.31;40.46;100045.76;124502;1102;107558;-77
2023/07/06 09:53:34;;;;;;;14.23;8.50;;;;;;;34.41;40.34;100044.13;125771;1101;101889;-80
2023/07/06 09:56:14;;;;;;;15.27;8.70;;;;;;;34.55;40.51;100045.88;124437;1102;104271;-80
2023/07/06 09:58:49;;;;;;;19.37;9.27;;;;;;;34.60;40.41;100038.23;125813;1101;102041;-84
2023/07/06 10:01:32;;;;;;;14.50;8.43;;;;;;;34.66;40.17;100035.06;124699;1101;104201;-79
2023/07/06 10:04:08;;;;;;;;;;;;;;;34.73;40.52;100030.92;124433;1100;104251;-82
2023/07/06 10:07:00;;;;;;;16.00;7.97;;;;;;;34.74;40.04;100035.36;124712;1101;102096;-80
2023/07/06 10:09:35;;;;;;;13.57;7.93;;;;;;;34.74;39.99;100027.19;124398;1102;104287;-78
2023/07/06 10:12:17;;;;;;;17.30;9.07;;;;;;;34.69;39.85;100020.36;124655;1102;102025;-78
2023/07/06 10:14:52;;;;;;;13.63;8.20;;;;;;;34.45;39.65;100032.02;124232;1102;104187;-78
2023/07/06 10:17:37;;;;;;;15.73;7.80;;;;;;;34.41;39.91;100019.63;124297;1102;104255;-79
2023/07/06 10:20:17;;;;;;;14.47;8.17;;;;;;;34.50;39.57;100020.80;124363;1102;104245;-77
2023/07/06 10:23:04;;;;;;;16.67;8.30;;;;;;;34.50;39.56;100021.69;125543;1101;101967;-77
2023/07/06 10:25:44;;;;;;;14.83;8.17;;;;;;;34.59;39.79;100009.23;125421;1102;104274;-77
2023/07/06 10:28:22;;;;;;;16.77;7.93;;;;;;;34.62;39.33;100011.73;124253;1102;104281;-77
2023/07/06 10:30:57;;;;;;;15.47;7.57;;;;;;;34.59;39.02;100009.23;124234;1102;104220;-77
2023/07/06 10:33:37;;;;;;;12.47;7.50;;;;;;;34.47;38.60;100004.67;124519;1102;104230;-74
2023/07/06 10:36:15;;;;;;;14.57;7.57;;;;;;;34.54;38.91;99997.81;124349;1102;104192;-77
2023/07/06 10:38:50;;;;;;;14.93;7.93;;;;;;;34.72;38.44;99998.34;124352;1102;104335;-77
2023/07/06 10:41:29;;;;;;;15.27;8.53;;;;;;;34.83;38.43;99987.54;124214;1102;104199;-78
2023/07/06 10:44:22;;;;;;;13.20;7.43;;;;;;;34.89;38.40;99991.64;125939;1101;104179;-79
2023/07/06 10:46:58;;;;;;;13.90;7.53;;;;;;;34.69;38.15;99987.66;124955;1101;104161;-81
2023/07/06 10:49:33;;;;;;;16.90;7.30;;;;;;;34.51;37.90;99989.86;124454;1102;101933;-76
2023/07/06 10:52:08;;;;;;;16.90;7.77;;;;;;;34.47;37.71;99983.78;124370;1102;101868;-76
2023/07/06 10:54:40;;;;;;;19.03;7.80;;;;;;;34.64;37.39;99987.10;124866;1102;102308;-76
2023/07/06 10:57:13;;;;;;;15.67;7.40;;;;;;;34.75;37.04;99981.80;124660;1101;104246;-81
2023/07/06 10:59:48;;;;;;;12.97;7.13;;;;;;;34.91;36.98;99982.38;124939;1102;102291;-78
2023/07/06 11:02:40;;;;;;;14.83;7.90;;;;;;;34.99;36.47;99970.91;124930;1102;112005;-77
2023/07/06 11:05:26;;;;;;;14.70;7.87;;;;;;;35.20;36.35;99975.72;124444;1102;104206;-77
2023/07/06 11:08:10;;;;;;;13.03;7.80;;;;;;;35.30;36.31;99967.72;124345;1102;102056;-74
2023/07/06 11:10:56;;;;;;;12.80;7.47;;;;;;;35.41;36.38;99967.80;124659;1102;104229;-77
2023/07/06 11:13:32;;;;;;;14.73;8.13;;;;;;;35.30;36.04;99965.00;124900;1102;101854;-75
2023/07/06 11:16:04;;;;;;;19.03;7.87;;;;;;;35.10;35.74;99968.23;124386;1102;104363;-74
2023/07/06 11:18:40;;;;;;;15.78;8.08;;;;;;;34.82;35.92;99950.36;124276;1102;102491;-73
2023/07/06 11:21:24;;;;;;;15.37;8.10;;;;;;;34.72;36.36;99949.29;124136;1102;104242;-75
2023/07/06 11:24:06;;;;;;;16.00;7.70;;;;;;;34.78;36.15;99946.11;124129;1099;101906;-75
2023/07/06 11:26:50;;;;;;;17.50;8.43;;;;;;;34.60;36.51;99950.20;124169;1099;104249;-75
2023/07/06 11:29:28;;;;;;;16.20;7.93;;;;;;;34.59;36.24;99940.27;124157;1099;104179;-75
2023/07/06 11:32:16;;;;;;;17.67;8.33;;;;;;;34.61;36.45;99936.46;124117;1101;102158;-74
2023/07/06 11:38:29;;;;;;;17.60;8.63;;;;;;;34.34;36.67;99932.03;124625;1102;104191;-77
2023/07/06 11:41:32;;;;;;;16.13;8.27;;;;;;;34.44;36.66;99926.80;124169;1102;102639;-76
2023/07/06 11:44:28;;;;;;;14.63;7.67;;;;;;;34.52;36.33;99924.37;124291;1099;104173;-77
2023/07/06 11:47:16;;;;;;;13.33;7.53;;;;;;;34.53;35.86;99917.06;124134;1099;104169;-74